createdAt,value
2022-08-26T00:00:56.163Z,11.90
2022-08-26T00:03:26.219Z,17.55
2022-08-26T00:05:57.837Z,9.98
2022-08-26T00:08:27.970Z,10.25
2022-08-26T00:10:58.096Z,7.70
2022-08-26T00:13:30.600Z,5.28
2022-08-26T00:16:01.352Z,10.07
2022-08-26T00:18:33.192Z,12.32
2022-08-26T00:21:09.420Z,14.82
2022-08-26T00:23:39.585Z,7.95
2022-08-26T00:26:11.005Z,11.38
2022-08-26T00:28:41.259Z,14.85
2022-08-26T00:31:11.399Z,11.25
2022-08-26T00:33:42.008Z,5.95
2022-08-26T00:36:19.964Z,8.15
2022-08-26T00:38:50.700Z,19.33
2022-08-26T00:41:21.290Z,8.43
2022-08-26T00:43:51.704Z,9.73
2022-08-26T00:46:23.004Z,8.80
2022-08-26T00:48:57.298Z,16.55
2022-08-26T00:51:30.032Z,10.45
2022-08-26T00:54:01.690Z,15.48
2022-08-26T00:56:33.726Z,6.40
2022-08-26T00:59:04.666Z,9.90
2022-08-26T01:01:35.152Z,13.35
2022-08-26T01:04:05.881Z,8.95
2022-08-26T01:06:36.057Z,9.57
2022-08-26T01:09:06.544Z,10.32
2022-08-26T01:11:36.990Z,10.82
2022-08-26T01:14:07.753Z,22.50
2022-08-26T01:16:38.170Z,10.77
2022-08-26T01:19:21.916Z,12.32
2022-08-26T01:22:01.910Z,12.40
2022-08-26T01:24:32.209Z,13.32
2022-08-26T01:27:04.735Z,14.77
2022-08-26T01:29:34.997Z,22.38
2022-08-26T01:32:05.298Z,21.42
2022-08-26T01:34:37.810Z,24.65
2022-08-26T01:37:13.644Z,21.08
2022-08-26T01:39:46.166Z,12.02
2022-08-26T01:42:16.479Z,22.02
2022-08-26T01:45:07.973Z,22.42
2022-08-26T01:47:38.408Z,63.13
2022-08-26T01:50:10.628Z,36.13
2022-08-26T01:52:42.047Z,43.88
2022-08-26T01:55:14.953Z,27.23
2022-08-26T01:57:59.608Z,21.98
2022-08-26T02:00:30.201Z,17.90
2022-08-26T02:03:18.552Z,11.10
2022-08-26T02:05:51.501Z,9.25
2022-08-26T02:08:27.331Z,7.93
2022-08-26T02:10:57.990Z,11.38
2022-08-26T02:13:30.135Z,17.88
2022-08-26T02:16:01.887Z,19.88
2022-08-26T02:18:32.860Z,13.65
2022-08-26T02:21:03.077Z,10.70
2022-08-26T02:23:37.177Z,4.85
2022-08-26T02:26:10.524Z,8.00
2022-08-26T02:29:00.786Z,5.85
2022-08-26T02:31:31.265Z,7.35
2022-08-26T02:34:12.499Z,4.32
2022-08-26T02:36:42.632Z,2.17
2022-08-26T02:39:15.021Z,4.70
2022-08-26T02:41:48.106Z,9.48
2022-08-26T02:44:18.921Z,4.18
2022-08-26T02:46:49.496Z,0.90
2022-08-26T02:49:20.655Z,1.23
2022-08-26T02:51:58.378Z,4.10
2022-08-26T02:54:32.133Z,1.00
2022-08-26T02:57:04.149Z,2.75
2022-08-26T02:59:37.374Z,0.60
2022-08-26T03:02:07.938Z,2.13
2022-08-26T03:04:39.481Z,0.85
2022-08-26T03:07:09.875Z,0.52
2022-08-26T03:09:40.929Z,0.80
2022-08-26T03:12:11.090Z,1.23
2022-08-26T03:14:44.174Z,3.15
2022-08-26T03:17:14.797Z,2.67
2022-08-26T03:19:44.978Z,0.82
2022-08-26T03:22:15.139Z,1.45
2022-08-26T03:24:46.252Z,2.15
2022-08-26T03:27:17.237Z,1.38
2022-08-26T03:30:13.958Z,3.95
2022-08-26T03:32:45.900Z,4.43
2022-08-26T03:35:17.722Z,3.80
2022-08-26T03:37:52.116Z,1.50
2022-08-26T03:40:22.570Z,0.70
2022-08-26T03:42:52.974Z,0.77
2022-08-26T03:45:24.347Z,2.85
2022-08-26T03:47:54.926Z,1.48
2022-08-26T03:50:28.763Z,0.55
2022-08-26T03:52:59.015Z,0.98
2022-08-26T03:55:33.330Z,1.70
2022-08-26T03:58:03.578Z,0.43
2022-08-26T04:00:35.331Z,0.85
2022-08-26T04:03:09.786Z,1.85
2022-08-26T04:05:40.887Z,3.65
2022-08-26T04:08:11.705Z,1.90
2022-08-26T04:10:43.043Z,1.02
2022-08-26T04:13:13.547Z,1.15
2022-08-26T04:15:43.798Z,0.88
2022-08-26T04:18:14.309Z,3.03
2022-08-26T04:20:45.588Z,2.70
2022-08-26T04:23:16.384Z,1.50
2022-08-26T04:25:47.587Z,1.98
2022-08-26T04:28:18.032Z,1.30
2022-08-26T04:30:49.382Z,8.95
2022-08-26T04:33:28.487Z,8.73
2022-08-26T04:36:03.442Z,0.82
2022-08-26T04:38:35.679Z,1.08
2022-08-26T04:41:06.696Z,2.28
2022-08-26T04:43:46.740Z,4.10
2022-08-26T04:46:18.746Z,1.73
2022-08-26T04:48:50.312Z,0.60
2022-08-26T04:51:22.259Z,0.75
2022-08-26T04:53:52.442Z,4.45
2022-08-26T04:56:22.612Z,2.55
2022-08-26T04:58:52.876Z,1.10
2022-08-26T05:01:23.910Z,1.00
2022-08-26T05:03:55.920Z,0.93
2022-08-26T05:06:26.276Z,0.95
2022-08-26T05:08:56.960Z,1.30
2022-08-26T05:11:29.202Z,1.73
2022-08-26T05:14:02.312Z,5.57
2022-08-26T05:16:32.725Z,0.60
2022-08-26T05:19:03.105Z,2.30
2022-08-26T05:21:33.250Z,1.50
2022-08-26T05:24:05.932Z,0.93
2022-08-26T05:26:36.921Z,0.45
2022-08-26T05:29:07.899Z,1.33
2022-08-26T05:31:38.144Z,0.68
2022-08-26T05:34:08.732Z,3.60
2022-08-26T05:36:39.148Z,3.20
2022-08-26T05:39:10.580Z,3.10
2022-08-26T05:41:42.155Z,2.63
2022-08-26T05:44:14.102Z,2.55
2022-08-26T05:46:47.166Z,1.40
2022-08-26T05:49:17.683Z,1.08
2022-08-26T05:51:49.559Z,0.70
2022-08-26T05:54:22.041Z,3.47
2022-08-26T05:56:53.330Z,2.10
2022-08-26T05:59:24.172Z,0.68
2022-08-26T06:01:55.992Z,0.30
2022-08-26T06:04:29.554Z,1.55
2022-08-26T06:07:00.467Z,7.32
2022-08-26T06:09:30.719Z,1.00
2022-08-26T06:12:02.985Z,1.05
2022-08-26T06:14:33.560Z,0.47
2022-08-26T06:17:04.120Z,1.58
2022-08-26T06:19:34.588Z,5.03
2022-08-26T06:22:24.534Z,3.15
2022-08-26T06:25:14.322Z,4.28
2022-08-26T06:27:44.597Z,0.50
2022-08-26T06:30:15.837Z,0.98
2022-08-26T06:32:47.036Z,5.85
2022-08-26T06:35:17.334Z,4.28
2022-08-26T06:37:47.540Z,1.50
2022-08-26T06:40:17.829Z,1.63
2022-08-26T06:42:49.346Z,2.92
2022-08-26T06:45:19.820Z,0.57
2022-08-26T06:47:50.167Z,0.50
2022-08-26T06:50:21.738Z,2.60
2022-08-26T06:52:54.023Z,4.35
2022-08-26T06:55:26.983Z,2.35
2022-08-26T06:57:58.196Z,1.35
2022-08-26T07:00:28.856Z,1.83
2022-08-26T07:02:59.093Z,1.30
2022-08-26T07:05:29.315Z,1.77
2022-08-26T07:07:59.865Z,13.10
2022-08-26T07:10:30.136Z,2.38
2022-08-26T07:13:00.352Z,3.45
2022-08-26T07:15:31.508Z,1.80
2022-08-26T07:18:01.836Z,1.25
2022-08-26T07:20:32.569Z,1.50
2022-08-26T07:23:02.597Z,2.88
2022-08-26T07:25:32.898Z,4.80
2022-08-26T07:28:03.116Z,1.95
2022-08-26T07:30:33.447Z,2.53
2022-08-26T07:33:04.688Z,1.55
2022-08-26T07:35:35.103Z,2.75
2022-08-26T07:38:05.654Z,1.80
2022-08-26T07:40:36.004Z,0.95
2022-08-26T07:43:06.547Z,1.20
2022-08-26T07:45:37.058Z,3.00
2022-08-26T07:48:07.430Z,1.25
2022-08-26T07:50:49.178Z,3.67
2022-08-26T07:53:21.151Z,1.85
2022-08-26T07:55:51.288Z,1.77
2022-08-26T07:58:22.299Z,1.30
2022-08-26T08:00:52.577Z,1.33
2022-08-26T08:03:23.666Z,0.90
2022-08-26T08:05:53.834Z,1.08
2022-08-26T08:08:28.988Z,4.70
2022-08-26T08:10:59.723Z,2.78
2022-08-26T08:13:30.526Z,3.28
2022-08-26T08:16:02.026Z,0.68
2022-08-26T08:18:32.206Z,0.95
2022-08-26T08:21:21.359Z,1.13
2022-08-26T08:23:56.771Z,3.13
2022-08-26T08:26:27.517Z,1.48
2022-08-26T08:28:58.118Z,1.48
2022-08-26T08:31:54.454Z,3.90
2022-08-26T08:34:19.404Z,16.52
2022-08-26T08:36:53.215Z,3.67
2022-08-26T08:39:23.944Z,3.40
2022-08-26T08:42:00.159Z,2.15
2022-08-26T08:44:30.248Z,1.00
2022-08-26T08:47:04.252Z,2.17
2022-08-26T08:49:34.935Z,1.50
2022-08-26T08:52:07.448Z,2.63
2022-08-26T08:54:37.890Z,1.80
2022-08-26T08:57:10.762Z,6.22
2022-08-26T08:59:48.811Z,1.50
2022-08-26T09:02:21.964Z,0.82
2022-08-26T09:04:55.357Z,2.22
2022-08-26T09:07:29.789Z,0.95
2022-08-26T09:10:02.090Z,1.23
2022-08-26T09:12:33.290Z,1.58
2022-08-26T09:15:05.114Z,2.40
2022-08-26T09:17:41.205Z,1.10
2022-08-26T09:20:14.716Z,1.35
2022-08-26T09:22:44.983Z,4.75
2022-08-26T09:25:15.683Z,0.57
2022-08-26T09:27:45.857Z,3.85
2022-08-26T09:30:35.728Z,1.52
2022-08-26T09:33:11.212Z,0.50
2022-08-26T09:35:42.498Z,0.85
2022-08-26T09:38:28.010Z,2.40
2022-08-26T09:41:07.858Z,1.13
2022-08-26T09:43:39.050Z,0.70
2022-08-26T09:46:17.091Z,1.67
2022-08-26T09:48:47.339Z,5.82
2022-08-26T09:51:24.866Z,6.15
2022-08-26T09:53:56.113Z,2.17
2022-08-26T09:56:27.633Z,1.63
2022-08-26T09:58:58.524Z,0.57
2022-08-26T10:01:31.513Z,1.15
2022-08-26T10:04:11.577Z,3.28
2022-08-26T10:06:44.041Z,4.07
2022-08-26T10:09:15.012Z,1.85
2022-08-26T10:11:47.635Z,1.67
2022-08-26T10:14:21.465Z,1.30
2022-08-26T10:16:57.757Z,5.03
2022-08-26T10:19:41.333Z,1.38
2022-08-26T10:22:27.035Z,2.60
2022-08-26T10:24:58.792Z,0.73
2022-08-26T10:27:52.672Z,1.20
2022-08-26T10:30:24.799Z,1.38
2022-08-26T10:32:58.431Z,2.90
2022-08-26T10:35:29.443Z,2.65
2022-08-26T10:38:01.254Z,2.15
2022-08-26T10:40:34.692Z,7.00
2022-08-26T10:43:11.106Z,2.47
2022-08-26T10:45:55.302Z,1.33
2022-08-26T10:48:35.500Z,3.70
2022-08-26T10:51:06.132Z,5.25
2022-08-26T10:53:42.515Z,4.95
2022-08-26T10:56:33.086Z,2.45
2022-08-26T10:59:12.778Z,4.07
2022-08-26T11:01:51.179Z,5.30
2022-08-26T11:04:44.407Z,5.43
2022-08-26T11:07:36.601Z,2.17
2022-08-26T11:10:10.745Z,3.40
2022-08-26T11:12:40.961Z,3.67
2022-08-26T11:15:14.968Z,3.30
2022-08-26T11:17:48.426Z,2.40
2022-08-26T11:20:36.662Z,4.20
2022-08-26T11:23:16.090Z,4.18
2022-08-26T11:25:58.610Z,5.97
2022-08-26T11:28:39.043Z,4.00
2022-08-26T11:31:32.131Z,1.80
2022-08-26T11:34:02.566Z,4.47
2022-08-26T11:36:39.529Z,1.70
2022-08-26T11:39:31.686Z,2.83
2022-08-26T11:44:40.852Z,7.45
2022-08-26T11:47:11.920Z,5.28
2022-08-26T11:49:42.693Z,8.80
2022-08-26T11:52:23.470Z,8.73
2022-08-26T11:55:06.946Z,6.57
2022-08-26T11:57:38.002Z,3.35
2022-08-26T12:00:13.612Z,7.18
2022-08-26T12:02:45.426Z,6.05
2022-08-26T12:05:18.279Z,11.18
2022-08-26T12:07:50.434Z,13.50
2022-08-26T12:10:31.237Z,13.60
2022-08-26T12:13:02.184Z,12.60
2022-08-26T12:15:33.355Z,15.90
2022-08-26T12:18:28.769Z,21.38
2022-08-26T12:21:00.951Z,14.77
2022-08-26T12:23:50.365Z,15.38
2022-08-26T12:26:28.514Z,20.23
2022-08-26T12:29:12.723Z,17.52
2022-08-26T12:32:16.673Z,15.65
2022-08-26T12:34:47.769Z,20.25
2022-08-26T12:37:18.865Z,19.50
2022-08-26T12:39:50.481Z,24.30
2022-08-26T12:42:23.985Z,29.80
2022-08-26T12:45:05.436Z,27.80
2022-08-26T12:47:45.429Z,29.10
2022-08-26T12:50:15.545Z,30.45
2022-08-26T12:52:46.560Z,41.90
2022-08-26T12:55:28.962Z,31.17
2022-08-26T12:58:15.421Z,31.20
2022-08-26T13:00:46.927Z,42.22
2022-08-26T13:03:35.986Z,29.55
2022-08-26T13:06:15.812Z,37.03
2022-08-26T13:08:50.348Z,36.22
2022-08-26T13:11:24.328Z,20.95
2022-08-26T13:13:58.047Z,21.10
2022-08-26T13:16:29.384Z,24.08
2022-08-26T13:19:01.533Z,25.65
2022-08-26T13:21:37.482Z,29.92
2022-08-26T13:24:15.140Z,28.08
2022-08-26T13:26:46.179Z,27.35
2022-08-26T13:29:16.575Z,32.58
2022-08-26T13:31:47.196Z,34.83
2022-08-26T13:34:20.228Z,29.77
2022-08-26T13:36:50.959Z,30.67
2022-08-26T13:39:21.221Z,31.58
2022-08-26T13:41:51.334Z,30.35
2022-08-26T13:44:22.860Z,37.05
2022-08-26T13:46:53.012Z,24.00
2022-08-26T13:49:23.866Z,29.13
2022-08-26T13:51:54.055Z,29.83
2022-08-26T13:54:25.151Z,35.63
2022-08-26T13:56:55.264Z,26.75
2022-08-26T13:59:25.693Z,22.38
2022-08-26T14:01:56.033Z,23.70
2022-08-26T14:04:27.318Z,33.53
2022-08-26T14:06:58.007Z,26.67
2022-08-26T14:09:28.182Z,28.63
2022-08-26T14:11:58.990Z,35.40
2022-08-26T14:14:31.761Z,21.60
2022-08-26T14:17:02.010Z,24.40
2022-08-26T14:19:32.525Z,32.70
2022-08-26T14:22:03.035Z,23.35
2022-08-26T14:24:33.198Z,29.95
2022-08-26T14:27:03.361Z,30.58
2022-08-26T14:29:33.666Z,25.77
2022-08-26T14:32:12.131Z,31.58
2022-08-26T14:34:42.688Z,30.00
2022-08-26T14:37:15.363Z,30.08
2022-08-26T14:39:46.425Z,29.95
2022-08-26T14:42:16.869Z,28.85
2022-08-26T14:44:47.262Z,28.95
2022-08-26T14:47:17.482Z,24.77
2022-08-26T14:49:47.624Z,24.60
2022-08-26T14:52:17.838Z,32.88
2022-08-26T14:54:48.049Z,27.02
2022-08-26T14:59:55.095Z,27.65
2022-08-26T15:02:33.225Z,25.40
2022-08-26T15:05:05.367Z,25.80
2022-08-26T15:07:35.472Z,20.35
2022-08-26T15:10:06.038Z,23.25
2022-08-26T15:12:36.564Z,25.52
2022-08-26T15:15:07.890Z,31.48
2022-08-26T15:17:38.121Z,20.02
2022-08-26T15:20:10.171Z,26.35
2022-08-26T15:22:40.660Z,19.65
2022-08-26T15:25:11.141Z,18.05
2022-08-26T15:27:41.629Z,24.27
2022-08-26T15:30:12.552Z,23.58
2022-08-26T15:32:42.912Z,20.70
2022-08-26T15:35:13.090Z,20.08
2022-08-26T15:37:43.365Z,21.15
2022-08-26T15:40:13.963Z,16.77
2022-08-26T15:42:44.024Z,26.58
2022-08-26T15:45:26.197Z,20.45
2022-08-26T15:48:01.501Z,17.48
2022-08-26T15:50:33.368Z,18.48
2022-08-26T15:53:03.946Z,18.52
2022-08-26T15:55:34.795Z,22.63
2022-08-26T15:58:05.664Z,20.13
2022-08-26T16:00:36.742Z,31.05
2022-08-26T16:03:10.555Z,18.05
2022-08-26T16:05:41.232Z,22.65
2022-08-26T16:08:11.977Z,31.00
2022-08-26T16:10:49.210Z,24.92
2022-08-26T16:13:21.345Z,21.63
2022-08-26T16:15:52.040Z,28.33
2022-08-26T16:18:23.606Z,25.05
2022-08-26T16:21:13.562Z,28.58
2022-08-26T16:23:45.321Z,28.13
2022-08-26T16:26:19.750Z,26.10
2022-08-26T16:28:50.052Z,23.88
2022-08-26T16:31:20.750Z,20.67
2022-08-26T16:33:51.155Z,20.48
2022-08-26T16:36:21.385Z,18.27
2022-08-26T16:38:54.709Z,18.42
2022-08-26T16:41:26.120Z,21.33
2022-08-26T16:43:56.601Z,20.77
2022-08-26T16:46:27.521Z,18.38
2022-08-26T16:48:58.183Z,17.00
2022-08-26T16:51:28.967Z,19.65
2022-08-26T16:53:59.667Z,21.63
2022-08-26T16:56:34.197Z,27.48
2022-08-26T16:59:06.321Z,19.60
2022-08-26T17:01:37.210Z,20.58
2022-08-26T17:04:07.820Z,18.77
2022-08-26T17:06:38.138Z,23.42
2022-08-26T17:09:08.428Z,18.00
2022-08-26T17:11:38.689Z,22.42
2022-08-26T17:14:09.057Z,21.35
2022-08-26T17:16:39.739Z,17.70
2022-08-26T17:19:09.873Z,25.98
2022-08-26T17:21:41.012Z,30.02
2022-08-26T17:24:11.282Z,21.67
2022-08-26T17:26:43.597Z,19.27
2022-08-26T17:31:48.711Z,19.95
2022-08-26T17:34:18.921Z,19.77
2022-08-26T17:36:49.129Z,20.33
2022-08-26T17:39:19.367Z,24.58
2022-08-26T17:41:50.153Z,23.48
2022-08-26T17:44:20.477Z,18.83
2022-08-26T17:46:50.554Z,22.85
2022-08-26T17:49:20.702Z,19.67
2022-08-26T17:51:51.417Z,21.05
2022-08-26T17:54:21.590Z,19.35
2022-08-26T17:56:51.815Z,20.83
2022-08-26T17:59:22.066Z,22.35
2022-08-26T18:01:53.190Z,14.75
2022-08-26T18:04:23.624Z,17.23
2022-08-26T18:06:53.889Z,14.75
2022-08-26T18:09:24.193Z,15.10
2022-08-26T18:11:54.357Z,12.77
2022-08-26T18:14:24.369Z,9.88
2022-08-26T18:16:54.583Z,12.93
2022-08-26T18:19:24.777Z,18.08
2022-08-26T18:21:55.123Z,16.65
2022-08-26T18:24:25.832Z,14.88
2022-08-26T18:26:55.995Z,17.25
2022-08-26T18:29:26.754Z,9.63
2022-08-26T18:31:56.916Z,9.75
2022-08-26T18:34:31.651Z,10.13
2022-08-26T18:37:02.255Z,9.77
2022-08-26T18:39:32.518Z,12.13
2022-08-26T18:42:02.726Z,12.23
2022-08-26T18:44:33.005Z,11.18
2022-08-26T18:47:03.130Z,10.75
2022-08-26T18:49:33.266Z,17.63
2022-08-26T18:52:03.623Z,9.50
2022-08-26T18:54:33.922Z,13.45
2022-08-26T18:57:04.758Z,9.65
2022-08-26T18:59:39.821Z,8.88
2022-08-26T19:02:10.931Z,12.32
2022-08-26T19:04:41.373Z,13.50
2022-08-26T19:07:11.523Z,14.70
2022-08-26T19:09:44.782Z,13.60
2022-08-26T19:12:16.071Z,7.60
2022-08-26T19:14:46.538Z,12.05
2022-08-26T19:17:16.682Z,12.93
2022-08-26T19:19:47.991Z,14.88
2022-08-26T19:22:18.380Z,11.05
2022-08-26T19:24:48.398Z,13.23
2022-08-26T19:27:18.608Z,8.07
2022-08-26T19:29:49.095Z,11.65
2022-08-26T19:32:19.126Z,9.15
2022-08-26T19:34:49.340Z,11.23
2022-08-26T19:37:21.155Z,11.18
2022-08-26T19:39:51.709Z,5.80
2022-08-26T19:42:21.874Z,13.18
2022-08-26T19:45:24.731Z,17.35
2022-08-26T19:47:56.093Z,11.02
2022-08-26T19:50:26.927Z,8.45
2022-08-26T19:52:57.128Z,9.95
2022-08-26T19:55:30.179Z,17.38
2022-08-26T19:58:00.354Z,16.25
2022-08-26T20:00:32.720Z,10.70
2022-08-26T20:03:03.533Z,17.40
2022-08-26T20:05:33.699Z,11.05
2022-08-26T20:08:03.944Z,10.25
2022-08-26T20:10:36.415Z,16.00
2022-08-26T20:13:06.680Z,13.07
2022-08-26T20:15:39.079Z,15.82
2022-08-26T20:18:31.975Z,11.15
2022-08-26T20:21:25.140Z,16.00
2022-08-26T20:24:00.255Z,15.80
2022-08-26T20:26:30.748Z,15.77
2022-08-26T20:29:01.479Z,10.52
2022-08-26T20:31:32.419Z,8.10
2022-08-26T20:34:02.526Z,11.07
2022-08-26T20:36:32.780Z,10.82
2022-08-26T20:39:02.945Z,8.35
2022-08-26T20:41:33.145Z,11.70
2022-08-26T20:44:03.476Z,9.10
2022-08-26T20:46:33.790Z,12.60
2022-08-26T20:49:05.976Z,14.15
2022-08-26T20:51:38.574Z,8.32
2022-08-26T20:54:09.033Z,16.40
2022-08-26T20:56:40.408Z,7.65
2022-08-26T20:59:10.849Z,11.75
2022-08-26T21:01:42.038Z,11.98
2022-08-26T21:04:14.151Z,11.75
2022-08-26T21:06:52.261Z,8.13
2022-08-26T21:09:24.306Z,6.38
2022-08-26T21:11:54.593Z,7.68
2022-08-26T21:14:26.586Z,4.75
2022-08-26T21:16:57.052Z,8.88
2022-08-26T21:19:27.988Z,8.13
2022-08-26T21:21:58.175Z,4.35
2022-08-26T21:24:28.462Z,6.07
2022-08-26T21:26:58.676Z,11.10
2022-08-26T21:29:28.845Z,13.27
2022-08-26T21:31:59.068Z,11.27
2022-08-26T21:34:29.534Z,11.60
2022-08-26T21:36:59.874Z,10.55
2022-08-26T21:39:30.096Z,7.97
2022-08-26T21:42:00.529Z,10.77
2022-08-26T21:44:30.788Z,11.68
2022-08-26T21:47:00.938Z,10.70
2022-08-26T21:49:31.059Z,8.80
2022-08-26T21:52:02.857Z,6.75
2022-08-26T21:54:33.611Z,9.15
2022-08-26T21:57:03.869Z,14.73
2022-08-26T21:59:34.136Z,11.13
2022-08-26T22:02:06.532Z,6.80
2022-08-26T22:04:37.656Z,7.82
2022-08-26T22:07:08.135Z,10.70
2022-08-26T22:09:38.254Z,6.53
2022-08-26T22:12:13.009Z,5.15
2022-08-26T22:14:43.187Z,7.93
2022-08-26T22:17:13.353Z,4.70
2022-08-26T22:19:46.332Z,8.40
2022-08-26T22:22:17.134Z,3.58
2022-08-26T22:24:47.460Z,8.95
2022-08-26T22:27:17.770Z,4.22
2022-08-26T22:29:49.218Z,4.65
2022-08-26T22:32:24.422Z,2.72
2022-08-26T22:34:54.704Z,6.45
2022-08-26T22:37:24.852Z,5.15
2022-08-26T22:39:55.162Z,2.13
2022-08-26T22:42:25.630Z,3.25
2022-08-26T22:44:56.152Z,3.75
2022-08-26T22:47:26.878Z,5.03
2022-08-26T22:49:57.253Z,3.95
2022-08-26T22:52:27.442Z,4.80
2022-08-26T22:54:57.594Z,2.88
2022-08-26T22:57:27.773Z,9.52
2022-08-26T22:59:58.054Z,9.13
2022-08-26T23:02:28.239Z,4.22
2022-08-26T23:04:58.730Z,4.88
2022-08-26T23:07:28.975Z,3.08
2022-08-26T23:09:59.199Z,5.30
2022-08-26T23:12:29.940Z,3.33
2022-08-26T23:15:00.072Z,4.28
2022-08-26T23:17:30.230Z,2.50
2022-08-26T23:20:00.369Z,1.63
2022-08-26T23:22:30.880Z,6.93
2022-08-26T23:25:07.655Z,5.28
2022-08-26T23:27:38.444Z,5.30
2022-08-26T23:30:09.410Z,10.75
2022-08-26T23:32:39.497Z,5.00
2022-08-26T23:35:10.062Z,6.10
2022-08-26T23:37:41.645Z,12.77
2022-08-26T23:40:13.526Z,5.50
2022-08-26T23:42:43.753Z,9.23
2022-08-26T23:45:14.447Z,7.05
2022-08-26T23:47:44.603Z,6.22
2022-08-26T23:50:14.909Z,6.72
2022-08-26T23:53:03.131Z,10.68
2022-08-26T23:55:35.893Z,5.68
2022-08-26T23:58:06.440Z,6.63
